createdAt,value
2022-09-23T00:00:42.911Z,7.71
2022-09-23T00:01:42.995Z,7.74
2022-09-23T00:02:43.011Z,7.82
2022-09-23T00:03:42.885Z,7.81
2022-09-23T00:04:42.906Z,7.71
2022-09-23T00:05:42.897Z,7.58
2022-09-23T00:06:42.872Z,7.44
2022-09-23T00:07:42.869Z,7.34
2022-09-23T00:08:42.864Z,7.22
2022-09-23T00:09:42.847Z,7.32
2022-09-23T00:10:42.868Z,7.41
2022-09-23T00:11:42.832Z,7.37
2022-09-23T00:12:42.852Z,7.38
2022-09-23T00:13:42.824Z,7.19
2022-09-23T00:14:42.816Z,7.44
2022-09-23T00:15:42.828Z,7.49
2022-09-23T00:16:42.921Z,7.56
2022-09-23T00:17:42.808Z,7.47
2022-09-23T00:18:42.803Z,7.44
2022-09-23T00:19:42.820Z,7.53
2022-09-23T00:20:42.780Z,7.55
2022-09-23T00:21:42.797Z,7.63
2022-09-23T00:22:42.780Z,7.69
2022-09-23T00:23:42.785Z,7.63
2022-09-23T00:24:42.776Z,7.42
2022-09-23T00:25:42.749Z,7.38
2022-09-23T00:26:42.793Z,7.31
2022-09-23T00:27:42.743Z,7.32
2022-09-23T00:28:42.750Z,7.37
2022-09-23T00:29:42.745Z,7.44
2022-09-23T00:30:42.794Z,7.47
2022-09-23T00:31:42.730Z,7.44
2022-09-23T00:32:42.716Z,7.41
2022-09-23T00:33:42.695Z,7.40
2022-09-23T00:34:42.724Z,7.26
2022-09-23T00:35:42.683Z,7.35
2022-09-23T00:36:42.715Z,7.17
2022-09-23T00:37:42.680Z,7.15
2022-09-23T00:38:42.664Z,7.24
2022-09-23T00:39:42.667Z,7.17
2022-09-23T00:40:42.769Z,7.16
2022-09-23T00:41:42.646Z,7.08
2022-09-23T00:42:42.672Z,6.99
2022-09-23T00:43:42.632Z,7.12
2022-09-23T00:44:42.642Z,7.35
2022-09-23T00:45:42.700Z,7.40
2022-09-23T00:46:42.608Z,7.32
2022-09-23T00:47:43.674Z,7.19
2022-09-23T00:48:42.609Z,7.05
2022-09-23T00:49:42.617Z,7.01
2022-09-23T00:50:42.596Z,6.94
2022-09-23T00:51:42.592Z,7.05
2022-09-23T00:52:42.598Z,6.94
2022-09-23T00:53:42.592Z,6.95
2022-09-23T00:54:42.588Z,7.12
2022-09-23T00:55:42.565Z,7.23
2022-09-23T00:56:42.548Z,7.15
2022-09-23T00:57:42.570Z,6.97
2022-09-23T00:58:42.570Z,6.94
2022-09-23T00:59:42.541Z,7.02
2022-09-23T01:00:42.543Z,7.04
2022-09-23T01:01:42.618Z,7.19
2022-09-23T01:02:42.567Z,7.22
2022-09-23T01:03:42.520Z,7.09
2022-09-23T01:04:42.507Z,6.98
2022-09-23T01:05:42.510Z,7.01
2022-09-23T01:06:42.506Z,6.95
2022-09-23T01:07:42.507Z,6.81
2022-09-23T01:08:42.501Z,6.84
2022-09-23T01:09:42.471Z,6.91
2022-09-23T01:10:42.474Z,6.86
2022-09-23T01:11:42.462Z,6.76
2022-09-23T01:12:42.462Z,6.63
2022-09-23T01:13:42.471Z,6.71
2022-09-23T01:14:42.443Z,6.59
2022-09-23T01:15:42.432Z,6.51
2022-09-23T01:16:42.525Z,6.62
2022-09-23T01:17:42.420Z,6.66
2022-09-23T01:18:42.440Z,6.63
2022-09-23T01:19:43.412Z,6.59
2022-09-23T01:20:42.416Z,6.56
2022-09-23T01:21:42.418Z,6.61
2022-09-23T01:22:42.401Z,6.61
2022-09-23T01:23:43.405Z,6.72
2022-09-23T01:24:42.385Z,6.65
2022-09-23T01:25:42.380Z,6.73
2022-09-23T01:26:42.391Z,6.63
2022-09-23T01:27:42.366Z,6.59
2022-09-23T01:28:42.363Z,6.61
2022-09-23T01:29:42.367Z,6.66
2022-09-23T01:30:42.358Z,6.71
2022-09-23T01:31:42.331Z,6.59
2022-09-23T01:32:42.340Z,6.63
2022-09-23T01:33:42.325Z,6.76
2022-09-23T01:34:42.335Z,6.72
2022-09-23T01:35:42.335Z,6.61
2022-09-23T01:36:42.310Z,6.62
2022-09-23T01:37:42.312Z,6.79
2022-09-23T01:38:42.293Z,6.83
2022-09-23T01:39:42.319Z,6.71
2022-09-23T01:40:42.386Z,6.84
2022-09-23T01:41:42.284Z,7.04
2022-09-23T01:42:42.279Z,6.97
2022-09-23T01:43:42.275Z,6.98
2022-09-23T01:44:42.289Z,7.09
2022-09-23T01:45:42.256Z,7.24
2022-09-23T01:46:42.247Z,7.05
2022-09-23T01:47:42.247Z,7.13
2022-09-23T01:48:42.284Z,6.97
2022-09-23T01:49:42.247Z,7.01
2022-09-23T01:50:42.227Z,6.99
2022-09-23T01:51:42.235Z,7.12
2022-09-23T01:52:42.203Z,7.07
2022-09-23T01:53:42.199Z,7.23
2022-09-23T01:54:42.200Z,7.31
2022-09-23T01:55:42.209Z,7.38
2022-09-23T01:56:42.199Z,7.20
2022-09-23T01:57:42.179Z,7.17
2022-09-23T01:58:42.163Z,7.12
2022-09-23T01:59:42.175Z,7.17
2022-09-23T02:00:42.171Z,7.19
2022-09-23T02:01:42.320Z,7.22
2022-09-23T02:02:42.238Z,7.29
2022-09-23T02:03:42.139Z,7.05
2022-09-23T02:04:42.147Z,6.99
2022-09-23T02:05:42.151Z,6.99
2022-09-23T02:06:42.123Z,6.89
2022-09-23T02:07:42.127Z,6.83
2022-09-23T02:08:42.114Z,6.77
2022-09-23T02:09:42.105Z,6.86
2022-09-23T02:10:42.124Z,6.97
2022-09-23T02:11:42.105Z,7.07
2022-09-23T02:12:42.082Z,6.97
2022-09-23T02:13:42.100Z,6.98
2022-09-23T02:14:42.073Z,6.94
2022-09-23T02:15:42.077Z,6.98
2022-09-23T02:16:42.118Z,6.99
2022-09-23T02:17:42.054Z,6.99
2022-09-23T02:18:42.049Z,6.98
2022-09-23T02:19:42.044Z,6.91
2022-09-23T02:20:42.048Z,6.98
2022-09-23T02:21:42.022Z,7.07
2022-09-23T02:22:42.033Z,7.15
2022-09-23T02:23:42.047Z,7.15
2022-09-23T02:24:42.001Z,7.24
2022-09-23T02:25:42.022Z,7.04
2022-09-23T02:26:41.990Z,6.69
2022-09-23T02:27:41.994Z,6.48
2022-09-23T02:28:41.990Z,6.47
2022-09-23T02:29:41.966Z,6.54
2022-09-23T02:30:41.980Z,6.65
2022-09-23T02:31:42.003Z,6.69
2022-09-23T02:32:41.959Z,6.66
2022-09-23T02:33:41.929Z,6.56
2022-09-23T02:34:42.945Z,6.30
2022-09-23T02:35:41.950Z,6.32
2022-09-23T02:36:41.945Z,6.36
2022-09-23T02:38:14.350Z,6.38
2022-09-23T02:38:41.913Z,6.29
2022-09-23T02:39:41.905Z,6.21
2022-09-23T02:40:42.067Z,6.10
2022-09-23T02:41:41.930Z,6.19
2022-09-23T02:42:41.893Z,6.14
2022-09-23T02:43:41.878Z,6.03
2022-09-23T02:44:41.865Z,6.06
2022-09-23T02:45:42.903Z,5.91
2022-09-23T02:46:41.869Z,5.85
2022-09-23T02:47:41.848Z,5.85
2022-09-23T02:48:41.855Z,5.96
2022-09-23T02:49:41.867Z,5.98
2022-09-23T02:50:41.836Z,6.00
2022-09-23T02:51:41.856Z,6.09
2022-09-23T02:52:41.840Z,6.06
2022-09-23T02:53:41.827Z,6.18
2022-09-23T02:54:42.487Z,6.14
2022-09-23T02:55:41.822Z,6.06
2022-09-23T02:56:41.820Z,5.96
2022-09-23T02:57:41.800Z,6.14
2022-09-23T02:58:41.806Z,6.07
2022-09-23T02:59:41.788Z,6.13
2022-09-23T03:00:41.779Z,6.07
2022-09-23T03:01:41.813Z,6.14
2022-09-23T03:02:41.974Z,6.07
2022-09-23T03:03:41.774Z,6.16
2022-09-23T03:04:42.361Z,6.13
2022-09-23T03:05:42.766Z,6.11
2022-09-23T03:06:41.762Z,5.96
2022-09-23T03:07:41.750Z,6.04
2022-09-23T03:08:41.827Z,6.03
2022-09-23T03:09:41.731Z,6.18
2022-09-23T03:10:41.718Z,6.11
2022-09-23T03:11:41.706Z,6.25
2022-09-23T03:12:41.705Z,6.19
2022-09-23T03:13:41.706Z,6.29
2022-09-23T03:14:41.707Z,6.33
2022-09-23T03:15:41.691Z,6.28
2022-09-23T03:16:41.723Z,6.26
2022-09-23T03:17:41.680Z,6.40
2022-09-23T03:18:41.694Z,6.35
2022-09-23T03:19:41.689Z,6.18
2022-09-23T03:20:41.658Z,6.19
2022-09-23T03:21:41.684Z,6.36
2022-09-23T03:22:41.657Z,6.46
2022-09-23T03:23:41.642Z,6.33
2022-09-23T03:24:41.651Z,6.40
2022-09-23T03:25:41.634Z,6.29
2022-09-23T03:26:41.622Z,6.28
2022-09-23T03:27:41.630Z,6.29
2022-09-23T03:28:41.611Z,6.22
2022-09-23T03:29:41.614Z,6.16
2022-09-23T03:30:41.606Z,6.38
2022-09-23T03:31:41.644Z,6.40
2022-09-23T03:32:41.584Z,6.44
2022-09-23T03:33:41.575Z,6.56
2022-09-23T03:34:41.578Z,6.50
2022-09-23T03:35:41.575Z,6.53
2022-09-23T03:36:41.567Z,6.58
2022-09-23T03:37:41.550Z,6.51
2022-09-23T03:38:41.551Z,6.51
2022-09-23T03:39:41.548Z,6.56
2022-09-23T03:40:41.624Z,6.56
2022-09-23T03:41:41.553Z,6.48
2022-09-23T03:42:41.522Z,6.16
2022-09-23T03:43:41.518Z,6.11
2022-09-23T03:44:41.514Z,6.03
2022-09-23T03:45:41.548Z,5.95
2022-09-23T03:46:41.511Z,5.81
2022-09-23T03:47:41.490Z,5.85
2022-09-23T03:48:41.490Z,6.06
2022-09-23T03:49:41.487Z,6.03
2022-09-23T03:50:41.490Z,6.07
2022-09-23T03:51:44.544Z,6.07
2022-09-23T03:52:42.515Z,6.11
2022-09-23T03:53:41.458Z,6.14
2022-09-23T03:54:41.460Z,6.22
2022-09-23T03:55:48.394Z,6.22
2022-09-23T03:56:41.445Z,6.32
2022-09-23T03:57:41.448Z,6.44
2022-09-23T03:58:41.445Z,6.25
2022-09-23T03:59:41.413Z,6.13
2022-09-23T04:00:41.447Z,6.04
2022-09-23T04:01:41.437Z,6.00
2022-09-23T04:02:41.406Z,5.93
2022-09-23T04:03:41.405Z,6.16
2022-09-23T04:04:41.406Z,6.03
2022-09-23T04:05:41.386Z,5.93
2022-09-23T04:06:41.382Z,6.00
2022-09-23T04:07:41.362Z,5.98
2022-09-23T04:08:41.353Z,6.03
2022-09-23T04:09:42.381Z,5.86
2022-09-23T04:10:41.370Z,5.91
2022-09-23T04:11:41.338Z,5.92
2022-09-23T04:12:41.357Z,5.85
2022-09-23T04:13:41.334Z,5.68
2022-09-23T04:14:41.347Z,5.55
2022-09-23T04:15:41.333Z,5.70
2022-09-23T04:16:41.368Z,5.71
2022-09-23T04:17:41.311Z,5.78
2022-09-23T04:18:41.318Z,5.82
2022-09-23T04:19:41.305Z,5.91
2022-09-23T04:20:41.289Z,5.83
2022-09-23T04:21:41.292Z,5.96
2022-09-23T04:22:41.324Z,6.07
2022-09-23T04:23:41.281Z,6.11
2022-09-23T04:24:41.275Z,6.11
2022-09-23T04:25:41.272Z,6.14
2022-09-23T04:26:41.265Z,6.07
2022-09-23T04:27:41.274Z,6.13
2022-09-23T04:28:41.241Z,6.19
2022-09-23T04:29:41.241Z,6.10
2022-09-23T04:30:41.249Z,6.11
2022-09-23T04:31:41.433Z,6.14
2022-09-23T04:32:41.228Z,6.18
2022-09-23T04:33:41.227Z,6.06
2022-09-23T04:34:41.196Z,5.88
2022-09-23T04:35:41.208Z,5.86
2022-09-23T04:36:41.212Z,5.73
2022-09-23T04:37:41.200Z,5.68
2022-09-23T04:38:41.188Z,5.66
2022-09-23T04:39:41.191Z,5.64
2022-09-23T04:40:41.200Z,5.74
2022-09-23T04:41:41.174Z,5.70
2022-09-23T04:42:41.213Z,5.71
2022-09-23T04:43:41.155Z,5.75
2022-09-23T04:44:41.152Z,5.74
2022-09-23T04:45:41.132Z,5.81
2022-09-23T04:46:41.185Z,5.77
2022-09-23T04:47:41.151Z,5.85
2022-09-23T04:48:41.175Z,5.82
2022-09-23T04:49:41.111Z,5.86
2022-09-23T04:50:41.108Z,5.83
2022-09-23T04:51:41.115Z,6.00
2022-09-23T04:52:41.300Z,5.95
2022-09-23T04:53:41.093Z,6.11
2022-09-23T04:54:41.076Z,6.13
2022-09-23T04:55:41.152Z,5.96
2022-09-23T04:56:41.147Z,6.09
2022-09-23T04:57:41.067Z,6.06
2022-09-23T04:58:41.062Z,6.22
2022-09-23T04:59:41.051Z,6.14
2022-09-23T05:00:41.148Z,6.25
2022-09-23T05:01:41.243Z,6.13
2022-09-23T05:02:41.041Z,6.16
2022-09-23T05:03:41.030Z,6.26
2022-09-23T05:04:41.061Z,6.40
2022-09-23T05:05:41.029Z,6.35
2022-09-23T05:06:41.014Z,6.32
2022-09-23T05:07:41.037Z,6.51
2022-09-23T05:08:40.993Z,6.50
2022-09-23T05:09:40.978Z,6.61
2022-09-23T05:10:41.036Z,6.59
2022-09-23T05:11:40.979Z,6.61
2022-09-23T05:12:40.982Z,6.61
2022-09-23T05:13:41.064Z,6.65
2022-09-23T05:14:40.972Z,6.58
2022-09-23T05:15:40.951Z,6.68
2022-09-23T05:16:41.042Z,6.59
2022-09-23T05:17:40.959Z,6.68
2022-09-23T05:18:40.940Z,6.66
2022-09-23T05:19:40.958Z,6.80
2022-09-23T05:20:40.925Z,6.81
2022-09-23T05:21:40.934Z,6.79
2022-09-23T05:22:40.919Z,6.79
2022-09-23T05:23:40.949Z,6.99
2022-09-23T05:24:40.903Z,6.87
2022-09-23T05:25:40.895Z,6.80
2022-09-23T05:26:40.896Z,6.90
2022-09-23T05:27:40.879Z,6.83
2022-09-23T05:28:40.888Z,6.84
2022-09-23T05:29:40.871Z,7.04
2022-09-23T05:30:40.864Z,6.98
2022-09-23T05:31:40.928Z,7.02
2022-09-23T05:32:40.851Z,6.94
2022-09-23T05:33:40.838Z,6.86
2022-09-23T05:34:40.847Z,6.71
2022-09-23T05:35:40.870Z,6.53
2022-09-23T05:36:40.814Z,6.43
2022-09-23T05:37:40.826Z,6.59
2022-09-23T05:38:40.858Z,6.69
2022-09-23T05:39:40.811Z,6.77
2022-09-23T05:40:40.882Z,6.65
2022-09-23T05:41:40.786Z,6.73
2022-09-23T05:42:40.787Z,6.73
2022-09-23T05:43:40.779Z,6.89
2022-09-23T05:44:40.862Z,6.80
2022-09-23T05:45:40.798Z,6.95
2022-09-23T05:46:40.799Z,6.91
2022-09-23T05:47:40.778Z,6.99
2022-09-23T05:48:40.754Z,7.04
2022-09-23T05:49:58.720Z,6.97
2022-09-23T05:50:42.738Z,6.97
2022-09-23T05:51:40.762Z,7.01
2022-09-23T05:52:40.734Z,6.83
2022-09-23T05:53:40.722Z,6.99
2022-09-23T05:54:40.726Z,6.97
2022-09-23T05:55:40.710Z,7.07
2022-09-23T05:56:40.708Z,7.20
2022-09-23T05:57:40.696Z,7.27
2022-09-23T05:58:40.697Z,7.49
2022-09-23T05:59:40.694Z,7.62
2022-09-23T06:00:40.682Z,7.58
2022-09-23T06:01:40.721Z,7.45
2022-09-23T06:02:40.713Z,7.52
2022-09-23T06:03:40.660Z,7.72
2022-09-23T06:04:40.717Z,7.79
2022-09-23T06:05:40.683Z,7.92
2022-09-23T06:06:40.690Z,7.99
2022-09-23T06:07:40.640Z,8.03
2022-09-23T06:08:40.626Z,8.17
2022-09-23T06:09:40.678Z,8.22
2022-09-23T06:10:40.670Z,8.40
2022-09-23T06:11:40.706Z,8.44
2022-09-23T06:12:40.599Z,8.55
2022-09-23T06:13:40.611Z,8.65
2022-09-23T06:14:40.606Z,8.88
2022-09-23T06:15:40.697Z,9.01
2022-09-23T06:16:40.583Z,9.10
2022-09-23T06:17:40.635Z,8.90
2022-09-23T06:18:41.560Z,9.15
2022-09-23T06:19:40.599Z,9.13
2022-09-23T06:20:40.555Z,9.21
2022-09-23T06:21:40.556Z,9.40
2022-09-23T06:22:40.590Z,9.57
2022-09-23T06:23:41.875Z,9.71
2022-09-23T06:24:41.607Z,9.76
2022-09-23T06:25:40.539Z,9.96
2022-09-23T06:26:40.602Z,10.03
2022-09-23T06:27:40.509Z,10.03
2022-09-23T06:28:40.518Z,10.12
2022-09-23T06:29:40.572Z,10.17
2022-09-23T06:30:40.501Z,10.24
2022-09-23T06:31:40.525Z,10.44
2022-09-23T06:32:40.511Z,10.58
2022-09-23T06:33:40.468Z,10.70
2022-09-23T06:34:49.988Z,10.76
2022-09-23T06:35:51.380Z,10.91
2022-09-23T06:36:44.393Z,10.91
2022-09-23T06:37:41.447Z,11.06
2022-09-23T06:38:40.546Z,11.07
2022-09-23T06:39:40.495Z,11.10
2022-09-23T06:40:40.466Z,10.99
2022-09-23T06:41:40.454Z,10.89
2022-09-23T06:42:40.411Z,10.78
2022-09-23T06:43:40.439Z,10.92
2022-09-23T06:44:40.403Z,10.99
2022-09-23T06:45:40.399Z,11.11
2022-09-23T06:46:40.445Z,10.92
2022-09-23T06:47:40.411Z,10.95
2022-09-23T06:48:45.389Z,11.09
2022-09-23T06:49:42.380Z,10.91
2022-09-23T06:50:40.401Z,10.77
2022-09-23T06:51:40.395Z,10.89
2022-09-23T06:52:40.354Z,10.30
2022-09-23T06:53:40.461Z,10.33
2022-09-23T06:54:40.345Z,10.33
2022-09-23T06:55:40.340Z,10.25
2022-09-23T06:56:40.376Z,9.99
2022-09-23T06:57:40.316Z,10.22
2022-09-23T06:58:40.319Z,10.59
2022-09-23T06:59:40.313Z,10.73
2022-09-23T07:00:40.303Z,10.63
2022-09-23T07:01:40.361Z,10.76
2022-09-23T07:02:40.397Z,10.74
2022-09-23T07:03:40.329Z,10.52
2022-09-23T07:04:40.274Z,10.60
2022-09-23T07:05:40.281Z,10.73
2022-09-23T07:06:40.326Z,10.73
2022-09-23T07:07:40.277Z,10.73
2022-09-23T07:08:40.269Z,11.11
2022-09-23T07:09:40.244Z,11.11
2022-09-23T07:10:40.237Z,11.31
2022-09-23T07:11:40.249Z,11.28
2022-09-23T07:12:40.237Z,11.36
2022-09-23T07:13:40.228Z,11.46
2022-09-23T07:14:40.241Z,11.46
2022-09-23T07:15:40.246Z,11.41
2022-09-23T07:16:40.214Z,11.43
2022-09-23T07:17:40.222Z,11.75
2022-09-23T07:18:40.192Z,11.93
2022-09-23T07:19:40.188Z,11.89
2022-09-23T07:20:40.197Z,12.13
2022-09-23T07:21:40.164Z,12.24
2022-09-23T07:22:40.201Z,12.33
2022-09-23T07:23:40.184Z,12.26
2022-09-23T07:24:40.161Z,12.20
2022-09-23T07:25:40.153Z,12.41
2022-09-23T07:26:44.932Z,12.74
2022-09-23T07:27:42.154Z,13.04
2022-09-23T07:28:40.147Z,13.33
2022-09-23T07:29:47.868Z,14.10
2022-09-23T07:30:52.749Z,14.81
2022-09-23T07:31:42.132Z,15.51
2022-09-23T07:32:48.019Z,15.85
2022-09-23T07:33:42.180Z,16.48
2022-09-23T07:34:40.844Z,15.93
2022-09-23T07:35:40.096Z,15.75
2022-09-23T07:36:40.082Z,15.67
2022-09-23T07:37:40.075Z,15.76
2022-09-23T07:38:44.987Z,15.88
2022-09-23T07:39:42.084Z,16.14
2022-09-23T07:40:40.121Z,16.55
2022-09-23T07:41:40.056Z,17.23
2022-09-23T07:42:40.057Z,17.13
2022-09-23T07:43:40.057Z,17.87
2022-09-23T07:44:40.031Z,18.19
2022-09-23T07:45:40.041Z,18.84
2022-09-23T07:46:40.163Z,19.28
2022-09-23T07:47:40.011Z,19.17
2022-09-23T07:48:40.855Z,18.84
2022-09-23T07:49:40.009Z,19.57
2022-09-23T07:50:39.982Z,20.18
2022-09-23T07:51:40.006Z,20.59
2022-09-23T07:52:39.985Z,20.21
2022-09-23T07:53:39.983Z,20.39
2022-09-23T07:54:40.017Z,20.30
2022-09-23T07:55:39.950Z,20.35
2022-09-23T07:56:39.946Z,20.49
2022-09-23T07:57:39.963Z,20.81
2022-09-23T07:58:39.961Z,20.34
2022-09-23T07:59:39.965Z,20.20
2022-09-23T08:00:39.925Z,20.74
2022-09-23T08:01:40.897Z,20.83
2022-09-23T08:02:40.019Z,20.25
2022-09-23T08:03:39.926Z,20.61
2022-09-23T08:04:39.899Z,20.87
2022-09-23T08:05:39.905Z,20.34
2022-09-23T08:06:39.888Z,20.86
2022-09-23T08:07:39.887Z,21.61
2022-09-23T08:08:39.872Z,22.25
2022-09-23T08:09:39.915Z,22.69
2022-09-23T08:10:39.865Z,22.43
2022-09-23T08:11:39.858Z,23.05
2022-09-23T08:12:39.936Z,23.86
2022-09-23T08:13:39.835Z,24.23
2022-09-23T08:14:39.919Z,25.05
2022-09-23T08:15:39.886Z,25.30
2022-09-23T08:16:39.894Z,25.65
2022-09-23T08:17:39.817Z,26.44
2022-09-23T08:18:39.815Z,26.91
2022-09-23T08:19:39.900Z,27.17
2022-09-23T08:20:42.556Z,26.92
2022-09-23T08:21:40.800Z,25.86
2022-09-23T08:22:39.787Z,24.83
2022-09-23T08:23:39.772Z,25.17
2022-09-23T08:24:39.787Z,25.05
2022-09-23T08:25:39.788Z,25.27
2022-09-23T08:26:39.752Z,25.34
2022-09-23T08:27:39.771Z,25.22
2022-09-23T08:28:39.756Z,25.19
2022-09-23T08:29:39.743Z,25.28
2022-09-23T08:30:39.816Z,25.74
2022-09-23T08:31:39.731Z,25.38
2022-09-23T08:32:39.727Z,26.12
2022-09-23T08:33:39.755Z,26.67
2022-09-23T08:34:39.717Z,27.28
2022-09-23T08:35:39.722Z,27.05
2022-09-23T08:36:40.438Z,27.69
2022-09-23T08:37:39.811Z,27.69
2022-09-23T08:38:39.679Z,27.23
2022-09-23T08:40:11.675Z,26.20
2022-09-23T08:40:39.720Z,25.64
2022-09-23T08:41:39.676Z,25.52
2022-09-23T08:42:39.656Z,25.56
2022-09-23T08:43:39.648Z,25.86
2022-09-23T08:44:39.625Z,26.09
2022-09-23T08:45:40.648Z,26.32
2022-09-23T08:46:40.384Z,26.25
2022-09-23T08:47:39.619Z,26.11
2022-09-23T08:48:39.617Z,25.97
2022-09-23T08:49:39.612Z,24.63
2022-09-23T08:50:39.613Z,24.60
2022-09-23T08:51:39.640Z,24.54
2022-09-23T08:52:39.705Z,23.50
2022-09-23T08:53:39.604Z,23.02
2022-09-23T08:54:39.888Z,22.94
2022-09-23T08:55:39.595Z,23.07
2022-09-23T08:56:39.572Z,23.97
2022-09-23T08:57:39.563Z,24.82
2022-09-23T08:58:39.561Z,25.56
2022-09-23T08:59:39.571Z,26.09
2022-09-23T09:00:39.567Z,26.25
2022-09-23T09:01:39.648Z,26.29
2022-09-23T09:02:39.565Z,26.20
2022-09-23T09:03:40.523Z,26.64
2022-09-23T09:04:39.572Z,26.98
2022-09-23T09:05:39.507Z,27.53
2022-09-23T09:06:52.296Z,27.66
2022-09-23T09:07:41.505Z,26.50
2022-09-23T09:08:39.481Z,25.67
2022-09-23T09:09:39.489Z,25.94
2022-09-23T09:10:39.463Z,26.55
2022-09-23T09:11:39.488Z,27.09
2022-09-23T09:12:39.493Z,27.71
2022-09-23T09:13:39.536Z,27.77
2022-09-23T09:14:39.443Z,28.09
2022-09-23T09:15:39.521Z,27.13
2022-09-23T09:16:58.922Z,26.83
2022-09-23T09:17:41.453Z,26.84
2022-09-23T09:18:39.445Z,26.39
2022-09-23T09:19:39.433Z,26.43
2022-09-23T09:20:39.417Z,27.05
2022-09-23T09:21:39.406Z,27.69
2022-09-23T09:22:39.415Z,27.91
2022-09-23T09:23:39.418Z,28.06
2022-09-23T09:24:39.423Z,27.31
2022-09-23T09:25:39.382Z,26.49
2022-09-23T09:26:39.400Z,26.05
2022-09-23T09:27:39.358Z,26.17
2022-09-23T09:28:39.378Z,27.09
2022-09-23T09:29:39.559Z,27.96
2022-09-23T09:30:39.443Z,27.69
2022-09-23T09:31:39.415Z,28.44
2022-09-23T09:32:39.340Z,29.03
2022-09-23T09:33:39.350Z,29.26
2022-09-23T09:34:39.362Z,29.19
2022-09-23T09:35:41.722Z,28.69
2022-09-23T09:36:39.343Z,29.04
2022-09-23T09:37:39.302Z,28.84
2022-09-23T09:38:39.320Z,28.56
2022-09-23T09:39:39.332Z,28.22
2022-09-23T09:40:39.453Z,27.80
2022-09-23T09:41:39.292Z,27.82
2022-09-23T09:42:39.578Z,27.53
2022-09-23T09:43:43.481Z,28.35
2022-09-23T09:44:40.268Z,28.31
2022-09-23T09:45:39.288Z,28.77
2022-09-23T09:46:39.974Z,28.96
2022-09-23T09:47:39.257Z,28.14
2022-09-23T09:48:39.249Z,28.33
2022-09-23T09:49:40.668Z,28.63
2022-09-23T09:50:40.236Z,29.31
2022-09-23T09:51:39.263Z,29.66
2022-09-23T09:52:39.787Z,28.85
2022-09-23T09:53:40.183Z,28.51
2022-09-23T09:54:39.155Z,26.87
2022-09-23T09:55:39.154Z,27.76
2022-09-23T09:56:39.157Z,28.82
2022-09-23T09:57:39.177Z,29.62
2022-09-23T09:58:39.120Z,29.49
2022-09-23T09:59:39.172Z,27.82
2022-09-23T10:00:40.123Z,28.21
2022-09-23T10:01:39.138Z,27.92
2022-09-23T10:02:39.186Z,26.40
2022-09-23T10:03:39.100Z,26.84
2022-09-23T10:04:39.237Z,27.54
2022-09-23T10:05:39.094Z,28.73
2022-09-23T10:06:39.181Z,29.79
2022-09-23T10:07:39.070Z,30.94
2022-09-23T10:08:39.124Z,31.46
2022-09-23T10:09:39.122Z,30.52
2022-09-23T10:10:39.068Z,29.37
2022-09-23T10:11:39.096Z,29.66
2022-09-23T10:12:39.089Z,28.70
2022-09-23T10:13:39.044Z,28.31
2022-09-23T10:14:39.057Z,27.86
2022-09-23T10:15:42.484Z,27.77
2022-09-23T10:16:41.096Z,27.94
2022-09-23T10:17:39.056Z,28.90
2022-09-23T10:18:39.035Z,28.75
2022-09-23T10:19:39.048Z,29.13
2022-09-23T10:20:39.045Z,29.47
2022-09-23T10:21:39.010Z,28.82
2022-09-23T10:22:39.011Z,27.94
2022-09-23T10:23:38.999Z,28.75
2022-09-23T10:24:39.012Z,28.95
2022-09-23T10:25:38.980Z,29.70
2022-09-23T10:26:39.007Z,29.23
2022-09-23T10:27:38.973Z,29.20
2022-09-23T10:28:38.971Z,29.75
2022-09-23T10:29:38.984Z,30.61
2022-09-23T10:30:39.016Z,31.15
2022-09-23T10:31:38.951Z,30.12
2022-09-23T10:32:38.925Z,29.94
2022-09-23T10:33:38.920Z,29.77
2022-09-23T10:34:38.918Z,30.09
2022-09-23T10:35:38.905Z,30.81
2022-09-23T10:36:43.747Z,30.37
2022-09-23T10:37:40.935Z,29.16
2022-09-23T10:38:38.899Z,28.90
2022-09-23T10:39:38.893Z,28.73
2022-09-23T10:40:39.103Z,27.59
2022-09-23T10:41:38.866Z,26.77
2022-09-23T10:42:38.881Z,26.80
2022-09-23T10:43:38.865Z,27.05
2022-09-23T10:44:38.868Z,26.46
2022-09-23T10:45:41.184Z,26.06
2022-09-23T10:46:39.008Z,26.77
2022-09-23T10:47:38.856Z,27.11
2022-09-23T10:48:38.860Z,26.86
2022-09-23T10:49:38.841Z,26.32
2022-09-23T10:50:38.818Z,26.36
2022-09-23T10:51:38.809Z,27.16
2022-09-23T10:52:38.840Z,26.98
2022-09-23T10:53:38.829Z,26.81
2022-09-23T10:54:38.793Z,26.94
2022-09-23T10:55:39.364Z,25.97
2022-09-23T10:56:38.795Z,26.12
2022-09-23T10:57:38.791Z,26.98
2022-09-23T10:58:38.795Z,27.67
2022-09-23T10:59:38.780Z,27.58
2022-09-23T11:00:38.783Z,27.92
2022-09-23T11:01:38.916Z,27.11
2022-09-23T11:02:38.756Z,27.13
2022-09-23T11:03:39.393Z,27.31
2022-09-23T11:04:38.891Z,27.74
2022-09-23T11:05:38.738Z,28.10
2022-09-23T11:06:38.753Z,28.53
2022-09-23T11:07:38.738Z,28.11
2022-09-23T11:08:38.734Z,28.77
2022-09-23T11:09:39.410Z,29.15
2022-09-23T11:10:46.719Z,28.54
2022-09-23T11:11:40.739Z,28.48
2022-09-23T11:12:38.709Z,27.86
2022-09-23T11:13:38.706Z,28.91
2022-09-23T11:14:38.698Z,28.60
2022-09-23T11:15:38.735Z,28.26
2022-09-23T11:16:38.799Z,28.72
2022-09-23T11:17:38.685Z,28.66
2022-09-23T11:18:38.676Z,27.94
2022-09-23T11:19:42.221Z,28.25
2022-09-23T11:20:40.694Z,28.65
2022-09-23T11:21:38.670Z,29.45
2022-09-23T11:22:38.686Z,29.47
2022-09-23T11:23:38.687Z,28.63
2022-09-23T11:24:38.666Z,27.92
2022-09-23T11:25:38.663Z,27.62
2022-09-23T11:26:38.660Z,27.94
2022-09-23T11:27:38.642Z,28.07
2022-09-23T11:28:38.638Z,28.13
2022-09-23T11:29:38.654Z,28.16
2022-09-23T11:30:38.650Z,27.69
2022-09-23T11:31:38.594Z,27.96
2022-09-23T11:32:38.605Z,28.22
2022-09-23T11:33:38.579Z,28.77
2022-09-23T11:34:38.576Z,29.60
2022-09-23T11:35:38.596Z,29.06
2022-09-23T11:36:38.597Z,28.09
2022-09-23T11:37:38.560Z,27.06
2022-09-23T11:38:38.557Z,27.43
2022-09-23T11:39:38.555Z,27.82
2022-09-23T11:40:42.352Z,28.60
2022-09-23T11:41:40.579Z,29.29
2022-09-23T11:42:38.519Z,29.41
2022-09-23T11:43:38.538Z,28.73
2022-09-23T11:44:38.536Z,28.62
2022-09-23T11:45:38.585Z,27.99
2022-09-23T11:46:38.516Z,27.99
2022-09-23T11:47:39.959Z,27.85
2022-09-23T11:48:39.494Z,27.50
2022-09-23T11:49:38.496Z,26.58
2022-09-23T11:50:38.491Z,26.39
2022-09-23T11:51:38.493Z,26.67
2022-09-23T11:52:38.476Z,27.06
2022-09-23T11:53:38.461Z,26.24
2022-09-23T11:54:38.457Z,26.21
2022-09-23T11:55:41.720Z,25.77
2022-09-23T11:56:42.954Z,26.01
2022-09-23T11:57:48.516Z,26.21
2022-09-23T11:59:40.853Z,25.74
2022-09-23T12:00:39.904Z,25.05
2022-09-23T12:01:39.611Z,25.32
2022-09-23T12:02:38.504Z,25.91
2022-09-23T12:03:43.829Z,26.25
2022-09-23T12:04:52.088Z,27.09
2022-09-23T12:05:40.593Z,27.95
2022-09-23T12:06:38.409Z,28.06
2022-09-23T12:07:38.420Z,26.69
2022-09-23T12:08:38.414Z,25.57
2022-09-23T12:09:57.793Z,25.37
2022-09-23T12:10:40.388Z,25.91
2022-09-23T12:11:38.384Z,26.77
2022-09-23T12:12:38.377Z,27.38
2022-09-23T12:13:38.389Z,28.32
2022-09-23T12:14:38.368Z,28.56
2022-09-23T12:15:38.416Z,27.99
2022-09-23T12:16:38.413Z,26.89
2022-09-23T12:17:38.343Z,26.50
2022-09-23T12:18:38.357Z,27.32
2022-09-23T12:19:38.354Z,27.58
2022-09-23T12:20:38.338Z,27.66
2022-09-23T12:21:50.145Z,27.79
2022-09-23T12:22:40.331Z,26.61
2022-09-23T12:23:38.318Z,25.72
2022-09-23T12:24:38.356Z,25.65
2022-09-23T12:25:38.314Z,25.53
2022-09-23T12:26:38.307Z,25.35
2022-09-23T12:27:38.299Z,25.54
2022-09-23T12:28:38.303Z,24.98
2022-09-23T12:29:38.307Z,24.75
2022-09-23T12:30:38.339Z,24.49
2022-09-23T12:31:41.096Z,24.73
2022-09-23T12:32:38.283Z,24.76
2022-09-23T12:33:38.273Z,24.39
2022-09-23T12:34:38.274Z,24.08
2022-09-23T12:35:38.275Z,24.13
2022-09-23T12:36:38.260Z,24.32
2022-09-23T12:37:38.242Z,23.94
2022-09-23T12:38:38.238Z,23.71
2022-09-23T12:39:38.235Z,23.87
2022-09-23T12:40:38.276Z,24.39
2022-09-23T12:41:38.242Z,25.07
2022-09-23T12:42:38.257Z,25.31
2022-09-23T12:43:38.212Z,25.09
2022-09-23T12:44:38.206Z,24.27
2022-09-23T12:45:38.967Z,24.61
2022-09-23T12:46:38.186Z,25.17
2022-09-23T12:47:38.279Z,25.56
2022-09-23T12:48:38.202Z,25.84
2022-09-23T12:49:38.172Z,24.71
2022-09-23T12:50:38.183Z,23.97
2022-09-23T12:51:38.177Z,24.42
2022-09-23T12:52:38.138Z,25.01
2022-09-23T12:53:38.155Z,24.95
2022-09-23T12:54:38.139Z,25.46
2022-09-23T12:55:38.134Z,25.52
2022-09-23T12:56:38.133Z,26.11
2022-09-23T12:57:38.153Z,26.62
2022-09-23T12:58:38.115Z,27.13
2022-09-23T12:59:38.097Z,26.87
2022-09-23T13:00:38.095Z,26.47
2022-09-23T13:01:38.276Z,26.72
2022-09-23T13:02:38.137Z,26.62
2022-09-23T13:03:38.077Z,26.99
2022-09-23T13:04:38.067Z,26.86
2022-09-23T13:05:38.092Z,27.59
2022-09-23T13:06:38.095Z,28.17